Aérodrome :
LOGIN :

S'inscrire | Disclaimer

   EN    FR    IT 

 










Légende :    VFR   VFR Marginal   IFR   IFR Intensif   IFR Très Intensif
Visi : 
Plafond : 
>= 8 km
>= 3000ft
5 à 8 km
1000 à 3000 ft
1500m à 5 km
500 à 1000 ft
800 à 1500m
200 à 500 ft
< 800m
< 200 ft
Symboles :   Orages  Brouillard  Fortes neiges  Fortes précipitations  Vent > 20 kt
SIGMETs :   Divers  Orages  Givrage  Turbulence  Onde Orograph.  Cendres Volcan.







- Altitude de l'aérodrome : 194 ft


EBCV - Chièvres

DERNIER METAR :
  • 160725Z AUTO 18005KT 9999 OVC029/// 19/15 Q1017 BLU

METARs EXPIRÉS :
  • 160655Z AUTO 19007KT 9999 OVC029/// 18/15 Q1017 BLU
  • 160625Z AUTO 18005KT 9999 OVC033/// 18/15 Q1017 BLU
  • 160555Z AUTO 17004KT 9999 OVC031/// 17/14 Q1017 BLU
  • 160525Z AUTO 17005KT 9999 OVC031/// 17/14 Q1017 BLU
  • 160455Z AUTO 17005KT 9999 OVC030/// 17/14 Q1017 BLU

TAF TAF EBCV
Valide du 16 à 07h jusqu'au 16 à 16h UTC


160541Z 1607/1616 18006KT 9999 BKN030
BECMG 1609/1611 SCT030
PROB30
TEMPO 1615/1616 4000 SHRA TSRA BKN015CB BY EBWM
Pas de NOTAMs connus pour ce terrain.



MET'MAP, la Météo Aéronautique d'un coup d'oeil ! - Copyright ORBIFLY Décembre 2007 - Disclaimer

ORBIFLY MET'MAP TEAM :

Programmation & Développement : Alexandra Zaïnal
Conception & Développement : Baudouin d'Aumeries
Co-Programmation & Développement : Marc-Olivier Méhu
Soutien technique & logistique : Manuel Goepfert

Contact : metmap@orbifly.com




SOURCES & CREDITS :

   NOAA